createdAt,value
2022-12-18T00:00:58.120Z,-4.12
2022-12-18T00:06:18.512Z,-4.10
2022-12-18T00:11:23.839Z,-4.03
2022-12-18T00:16:29.081Z,-4.05
2022-12-18T00:21:33.489Z,-4.14
2022-12-18T00:26:38.341Z,-4.22
2022-12-18T00:31:42.789Z,-4.28
2022-12-18T00:36:48.583Z,-4.35
2022-12-18T00:42:09.573Z,-4.44
2022-12-18T00:47:12.281Z,-4.56
2022-12-18T00:52:14.965Z,-4.66
2022-12-18T00:57:17.675Z,-4.68
2022-12-18T01:02:20.647Z,-4.70
2022-12-18T01:07:23.683Z,-4.71
2022-12-18T01:12:26.441Z,-4.77
2022-12-18T01:17:29.246Z,-4.77
2022-12-18T01:22:32.009Z,-4.78
2022-12-18T01:27:35.099Z,-4.78
2022-12-18T01:32:37.888Z,-4.85
2022-12-18T01:37:40.634Z,-4.85
2022-12-18T01:42:43.320Z,-4.90
2022-12-18T01:47:49.793Z,-4.92
2022-12-18T01:53:01.080Z,-5.01
2022-12-18T01:58:04.807Z,-5.07
2022-12-18T02:03:07.558Z,-5.11
2022-12-18T02:08:20.416Z,-5.11
2022-12-18T02:13:39.560Z,-5.13
2022-12-18T02:18:48.335Z,-5.20
2022-12-18T02:23:58.139Z,-5.34
2022-12-18T02:29:11.371Z,-5.52
2022-12-18T02:34:15.323Z,-5.59
2022-12-18T02:39:18.899Z,-5.64
2022-12-18T02:44:21.617Z,-5.70
2022-12-18T02:49:42.202Z,-5.80
2022-12-18T02:54:51.435Z,-5.90
2022-12-18T03:00:19.918Z,-5.96
2022-12-18T03:05:33.847Z,-5.92
2022-12-18T03:10:46.553Z,-5.91
2022-12-18T03:15:51.964Z,-5.99
2022-12-18T03:20:58.697Z,-6.01
2022-12-18T03:26:08.105Z,-6.05
2022-12-18T03:31:13.977Z,-6.10
2022-12-18T03:36:16.786Z,-6.15
2022-12-18T03:41:19.419Z,-6.24
2022-12-18T03:46:38.150Z,-6.27
2022-12-18T03:51:54.378Z,-6.33
2022-12-18T03:57:07.801Z,-6.30
2022-12-18T04:02:11.394Z,-6.22
2022-12-18T04:07:15.061Z,-6.23
2022-12-18T04:12:17.758Z,-6.29
2022-12-18T04:17:20.996Z,-6.32
2022-12-18T04:22:23.782Z,-6.30
2022-12-18T04:27:26.467Z,-6.26
2022-12-18T04:32:29.166Z,-6.25
2022-12-18T04:37:31.880Z,-6.22
2022-12-18T04:42:34.709Z,-6.19
2022-12-18T04:47:37.451Z,-6.13
2022-12-18T04:52:40.204Z,-6.07
2022-12-18T04:57:42.935Z,-5.99
2022-12-18T05:02:46.134Z,-5.91
2022-12-18T05:07:49.505Z,-5.80
2022-12-18T05:13:01.204Z,-5.75
2022-12-18T05:18:05.262Z,-5.70
2022-12-18T05:23:08.046Z,-5.66
2022-12-18T05:28:10.737Z,-5.55
2022-12-18T05:33:13.546Z,-5.44
2022-12-18T05:38:16.241Z,-5.32
2022-12-18T05:43:21.614Z,-5.21
2022-12-18T05:48:24.989Z,-5.15
2022-12-18T05:53:27.721Z,-5.11
2022-12-18T05:58:31.492Z,-5.04
2022-12-18T06:03:34.424Z,-4.94
2022-12-18T06:08:41.470Z,-4.83
2022-12-18T06:13:57.672Z,-4.75
2022-12-18T06:19:05.056Z,-4.69
2022-12-18T06:24:08.081Z,-4.58
2022-12-18T06:29:10.831Z,-4.45
2022-12-18T06:34:13.582Z,-4.33
2022-12-18T06:39:16.263Z,-4.25
2022-12-18T06:44:19.185Z,-4.24
2022-12-18T06:49:24.154Z,-4.21
2022-12-18T06:54:30.522Z,-4.15
2022-12-18T06:59:33.323Z,-4.05
2022-12-18T07:04:36.125Z,-3.99
2022-12-18T07:09:38.812Z,-3.98
2022-12-18T07:14:41.521Z,-3.97
2022-12-18T07:19:44.363Z,-3.96
2022-12-18T07:24:47.125Z,-3.88
2022-12-18T07:29:50.030Z,-3.83
2022-12-18T07:34:52.773Z,-3.73
2022-12-18T07:39:55.634Z,-3.66
2022-12-18T07:45:02.556Z,-3.60
2022-12-18T07:50:06.521Z,-3.57
2022-12-18T07:55:09.669Z,-3.56
2022-12-18T08:00:13.442Z,-3.54
2022-12-18T08:05:16.197Z,-3.46
2022-12-18T08:10:19.701Z,-3.40
2022-12-18T08:15:22.712Z,-3.42
2022-12-18T08:20:25.414Z,-3.48
2022-12-18T08:25:28.165Z,-3.58
2022-12-18T08:30:30.956Z,-3.63
2022-12-18T08:35:42.473Z,-3.62
2022-12-18T08:40:48.237Z,-3.50
2022-12-18T08:45:51.454Z,-3.32
2022-12-18T08:50:56.238Z,-3.20
2022-12-18T08:55:59.052Z,-3.11
2022-12-18T09:01:03.179Z,-3.00
2022-12-18T09:06:07.312Z,-2.91
2022-12-18T09:11:22.421Z,-2.92
2022-12-18T09:16:31.699Z,-3.00
2022-12-18T09:21:37.150Z,-3.11
2022-12-18T09:26:40.641Z,-3.14
2022-12-18T09:31:46.305Z,-3.08
2022-12-18T09:36:49.422Z,-3.01
2022-12-18T09:41:56.680Z,-2.87
2022-12-18T09:46:59.374Z,-2.70
2022-12-18T09:52:28.722Z,-2.59
2022-12-18T09:57:35.576Z,-2.52
2022-12-18T10:02:38.332Z,-2.44
2022-12-18T10:08:00.575Z,-2.49
2022-12-18T10:13:06.034Z,-2.52
2022-12-18T10:18:50.135Z,-2.55
2022-12-18T10:24:14.470Z,-2.53
2022-12-18T10:29:17.994Z,-2.53
2022-12-18T10:34:20.696Z,-2.30
2022-12-18T10:39:26.624Z,-2.15
2022-12-18T10:44:29.328Z,-1.99
2022-12-18T10:49:36.227Z,-1.78
2022-12-18T10:54:39.016Z,-1.57
2022-12-18T10:59:56.518Z,-1.32
2022-12-18T11:04:59.332Z,-0.72
2022-12-18T11:10:02.663Z,0.09
2022-12-18T11:15:07.152Z,1.51
2022-12-18T11:20:42.685Z,2.80
2022-12-18T11:25:54.706Z,4.28
2022-12-18T11:31:20.616Z,5.28
2022-12-18T11:36:24.621Z,6.00
2022-12-18T11:41:57.493Z,6.80
2022-12-18T11:47:26.836Z,7.64
2022-12-18T11:52:39.841Z,8.33
2022-12-18T11:58:31.577Z,8.74
2022-12-18T12:03:52.458Z,8.75
2022-12-18T12:09:17.355Z,8.45
2022-12-18T12:14:33.452Z,8.69
2022-12-18T12:19:39.533Z,9.08
2022-12-18T12:24:44.938Z,9.19
2022-12-18T12:29:50.476Z,9.08
2022-12-18T12:35:17.325Z,8.68
2022-12-18T12:40:50.286Z,8.75
2022-12-18T12:45:50.222Z,7.98
2022-12-18T12:50:54.621Z,6.65
2022-12-18T12:55:58.532Z,5.48
2022-12-18T13:01:23.321Z,4.26
2022-12-18T13:07:02.611Z,2.89
2022-12-18T13:12:34.865Z,2.04
2022-12-18T13:17:38.230Z,1.32
2022-12-18T13:22:47.653Z,0.94
2022-12-18T13:28:15.780Z,0.47
2022-12-18T13:33:18.681Z,-0.05
2022-12-18T13:38:31.904Z,-0.44
2022-12-18T13:43:47.637Z,-0.58
2022-12-18T13:49:05.521Z,-0.89
2022-12-18T13:54:40.429Z,-1.24
2022-12-18T13:59:43.129Z,-1.75
2022-12-18T14:04:47.855Z,-2.24
2022-12-18T14:10:06.457Z,-2.73
2022-12-18T14:15:32.392Z,-3.11
2022-12-18T14:20:36.253Z,-3.47
2022-12-18T14:25:38.906Z,-3.72
2022-12-18T14:30:43.808Z,-3.84
2022-12-18T14:36:01.686Z,-4.00
2022-12-18T14:41:07.817Z,-4.11
2022-12-18T14:46:29.451Z,-4.20
2022-12-18T14:51:35.424Z,-4.37
2022-12-18T14:56:45.711Z,-4.48
2022-12-18T15:02:02.982Z,-4.59
2022-12-18T15:07:24.079Z,-4.71
2022-12-18T15:12:43.745Z,-4.75
2022-12-18T15:17:46.486Z,-4.71
2022-12-18T15:22:49.255Z,-4.67
2022-12-18T15:27:52.009Z,-4.66
2022-12-18T15:33:23.938Z,-4.69
2022-12-18T15:38:27.746Z,-4.74
2022-12-18T15:43:37.681Z,-4.78
2022-12-18T15:48:55.503Z,-4.75
2022-12-18T15:54:05.895Z,-4.74
2022-12-18T15:59:17.419Z,-4.74
2022-12-18T16:04:22.245Z,-4.77
2022-12-18T16:09:26.601Z,-4.75
2022-12-18T16:14:31.344Z,-4.76
2022-12-18T16:19:34.346Z,-4.78
2022-12-18T16:24:37.363Z,-4.83
2022-12-18T16:29:40.230Z,-4.83
2022-12-18T16:34:44.708Z,-4.86
2022-12-18T16:39:47.416Z,-4.88
2022-12-18T16:44:50.663Z,-4.87
2022-12-18T16:49:54.214Z,-4.87
2022-12-18T16:54:57.373Z,-4.89
2022-12-18T17:00:05.120Z,-4.90
2022-12-18T17:05:08.633Z,-4.90
2022-12-18T17:10:11.461Z,-4.89
2022-12-18T17:15:14.263Z,-4.85
2022-12-18T17:20:16.996Z,-4.85
2022-12-18T17:25:22.427Z,-4.93
2022-12-18T17:30:26.863Z,-4.95
2022-12-18T17:35:30.590Z,-5.00
2022-12-18T17:40:33.672Z,-5.03
2022-12-18T17:45:40.397Z,-5.07
2022-12-18T17:50:43.087Z,-5.16
2022-12-18T17:55:55.646Z,-5.17
2022-12-18T18:00:58.548Z,-5.17
2022-12-18T18:06:02.569Z,-5.18
2022-12-18T18:11:34.947Z,-5.18
2022-12-18T18:16:47.537Z,-5.14
2022-12-18T18:21:52.766Z,-5.11
2022-12-18T18:26:56.567Z,-5.08
2022-12-18T18:31:59.948Z,-5.09
2022-12-18T18:37:03.096Z,-5.14
2022-12-18T18:42:05.885Z,-5.23
2022-12-18T18:47:09.657Z,-5.35
2022-12-18T18:52:12.623Z,-5.41
2022-12-18T18:57:20.961Z,-5.44
2022-12-18T19:02:24.717Z,-5.45
2022-12-18T19:07:30.599Z,-5.50
2022-12-18T19:12:53.619Z,-5.57
2022-12-18T19:17:56.333Z,-5.67
2022-12-18T19:22:59.361Z,-5.77
2022-12-18T19:28:02.046Z,-5.83
2022-12-18T19:33:33.981Z,-5.85
2022-12-18T19:38:30.341Z,-5.86
2022-12-18T19:43:36.138Z,-5.89
2022-12-18T19:48:39.111Z,-5.95
2022-12-18T19:53:42.245Z,-6.06
2022-12-18T19:58:45.855Z,-6.23
2022-12-18T20:03:52.621Z,-6.34
2022-12-18T20:09:01.183Z,-6.36
2022-12-18T20:14:05.143Z,-6.40
2022-12-18T20:19:08.953Z,-6.40
2022-12-18T20:24:13.013Z,-6.37
2022-12-18T20:29:15.766Z,-6.36
2022-12-18T20:34:18.997Z,-6.36
2022-12-18T20:39:22.277Z,-6.36
2022-12-18T20:44:26.137Z,-6.39
2022-12-18T20:49:29.648Z,-6.46
2022-12-18T20:54:32.425Z,-6.54
2022-12-18T20:59:35.170Z,-6.63
2022-12-18T21:04:37.844Z,-6.71
2022-12-18T21:09:40.741Z,-6.73
2022-12-18T21:14:44.789Z,-6.68
2022-12-18T21:19:47.478Z,-6.69
2022-12-18T21:24:52.182Z,-6.69
2022-12-18T21:29:54.980Z,-6.65
2022-12-18T21:34:57.829Z,-6.63
2022-12-18T21:40:00.530Z,-6.66
2022-12-18T21:45:03.841Z,-6.74
2022-12-18T21:50:07.165Z,-6.86
2022-12-18T21:55:10.631Z,-6.91
2022-12-18T22:00:18.589Z,-6.91
2022-12-18T22:05:23.447Z,-6.89
2022-12-18T22:10:26.149Z,-6.92
2022-12-18T22:15:28.863Z,-6.88
2022-12-18T22:20:31.846Z,-6.85
2022-12-18T22:25:36.492Z,-6.86
2022-12-18T22:30:42.812Z,-6.97
2022-12-18T22:35:45.639Z,-7.15
2022-12-18T22:40:48.853Z,-7.29
2022-12-18T22:45:51.883Z,-7.32
2022-12-18T22:50:58.504Z,-7.29
2022-12-18T22:56:02.515Z,-7.21
2022-12-18T23:01:06.233Z,-7.11
2022-12-18T23:06:09.553Z,-7.03
2022-12-18T23:11:13.668Z,-7.01
2022-12-18T23:16:20.297Z,-7.05
2022-12-18T23:21:24.304Z,-7.23
2022-12-18T23:26:28.661Z,-7.46
2022-12-18T23:31:37.526Z,-7.60
2022-12-18T23:36:45.427Z,-7.60
2022-12-18T23:41:49.547Z,-7.54
2022-12-18T23:46:53.025Z,-7.40
2022-12-18T23:51:56.136Z,-7.21
2022-12-18T23:56:59.073Z,-7.02
